Time;durP1;ratioP1;P1;durP2;ratioP2;P2;SDS_P1;SDS_P2;PMS_P1;PMS_P2;Temp;Humidity;BMP_temperature;BMP_pressure;BME280_temperature;BME280_humidity;BME280_pressure;Samples;Min_cycle;Max_cycle;Signal;HPM_P1;HPM_P2
2023/06/24 00:02:09;;;;;;;14.50;13.10;;;;;;;25.67;51.14;99938.95;105488;1253;60538;-74
2023/06/24 00:04:36;;;;;;;15.00;13.60;;;;;;;25.56;51.43;99938.29;105900;1255;65240;-74
2023/06/24 00:07:02;;;;;;;14.30;12.90;;;;;;;25.48;51.74;99940.39;105763;1256;60503;-74
2023/06/24 00:09:32;;;;;;;15.20;13.70;;;;;;;25.40;51.95;99939.05;105728;1256;62605;-75
2023/06/24 00:11:59;;;;;;;15.30;13.80;;;;;;;25.33;52.22;99937.24;105833;1253;60442;-75
2023/06/24 00:14:26;;;;;;;15.60;14.10;;;;;;;25.25;52.49;99947.79;105877;1253;60511;-75
2023/06/24 00:16:54;;;;;;;16.20;14.70;;;;;;;25.17;52.68;99950.51;105803;1256;65006;-75
2023/06/24 00:19:21;;;;;;;17.40;14.60;;;;;;;25.05;53.02;99949.23;105780;1253;60544;-75
2023/06/24 00:21:51;;;;;;;16.60;14.90;;;;;;;24.94;53.29;99945.52;105976;1253;63925;-74
2023/06/24 00:24:25;;;;;;;15.60;14.00;;;;;;;24.86;53.47;99947.11;105844;1254;60504;-74
2023/06/24 00:26:53;;;;;;;16.30;14.60;;;;;;;24.76;53.75;99946.67;105974;1252;60429;-73
2023/06/24 00:29:20;;;;;;;15.90;14.30;;;;;;;24.74;53.83;99950.66;105948;1251;65024;-74
2023/06/24 00:31:46;;;;;;;16.40;14.80;;;;;;;24.67;53.96;99945.70;105834;1254;60517;-74
2023/06/24 00:34:13;;;;;;;15.40;14.00;;;;;;;24.62;54.28;99943.09;105481;1257;62591;-75
2023/06/24 00:36:40;;;;;;;15.80;14.30;;;;;;;24.55;54.46;99937.85;105781;1253;60420;-75
2023/06/24 00:39:08;;;;;;;15.90;14.40;;;;;;;24.49;54.55;99934.25;105875;1252;60473;-73
2023/06/24 00:41:37;;;;;;;16.40;14.70;;;;;;;24.49;54.57;99931.25;105823;1258;65178;-74
2023/06/24 00:44:03;;;;;;;16.20;14.50;;;;;;;24.42;54.73;99928.80;105846;1252;60492;-74
2023/06/24 00:46:33;;;;;;;16.20;14.60;;;;;;;24.38;54.79;99926.34;105747;1253;64100;-74
2023/06/24 00:49:02;;;;;;;18.00;16.20;;;;;;;24.38;54.94;99925.19;105684;1253;60490;-73
2023/06/24 00:51:31;;;;;;;17.20;15.50;;;;;;;24.31;54.97;99921.24;105689;1253;60458;-74
2023/06/24 00:53:58;;;;;;;18.70;16.70;;;;;;;24.26;55.18;99919.73;105828;1256;65055;-74
2023/06/24 00:56:38;;;;;;;19.00;16.90;;;;;;;24.26;55.15;99920.44;105714;1253;60494;-74
2023/06/24 00:59:04;;;;;;;18.20;16.30;;;;;;;24.20;55.30;99915.90;105762;1253;64016;-74
2023/06/24 01:01:35;;;;;;;17.70;15.90;;;;;;;24.15;55.50;99917.08;105809;1253;60446;-74
2023/06/24 01:04:02;;;;;;;18.40;16.60;;;;;;;24.15;55.62;99919.77;105743;1253;60426;-75
2023/06/24 01:06:30;;;;;;;18.10;15.90;;;;;;;24.09;55.85;99918.11;106005;1251;65011;-75
2023/06/24 01:08:59;;;;;;;18.90;16.70;;;;;;;24.08;55.95;99920.98;105955;1256;60431;-74
2023/06/24 01:11:28;;;;;;;17.80;16.00;;;;;;;24.05;56.01;99921.06;106004;1256;62797;-75
2023/06/24 01:13:55;;;;;;;18.00;16.30;;;;;;;24.03;56.11;99921.19;105835;1254;61070;-74
2023/06/24 01:16:46;;;;;;;17.30;15.60;;;;;;;24.05;56.16;99922.72;105838;1253;60538;-75
2023/06/24 01:19:24;;;;;;;17.20;15.40;;;;;;;24.01;56.29;99921.09;105805;1253;63747;-75
2023/06/24 01:22:49;;;;;;;16.80;15.10;;;;;;;23.98;56.58;99918.62;105807;1251;60443;-74
2023/06/24 01:25:54;;;;;;;16.80;15.00;;;;;;;24.01;56.57;99917.13;105266;1259;64354;-74
2023/06/24 01:28:42;;;;;;;17.30;15.60;;;;;;;24.02;56.57;99917.13;105932;1253;60342;-74
2023/06/24 01:31:34;;;;;;;18.30;16.30;;;;;;;24.03;56.60;99917.66;105754;1253;60453;-74
2023/06/24 01:34:12;;;;;;;17.90;16.10;;;;;;;24.01;56.70;99914.33;106140;1253;65033;-75
2023/06/24 01:36:40;;;;;;;17.00;15.30;;;;;;;23.98;56.81;99914.27;105968;1253;61154;-75
2023/06/24 01:39:09;;;;;;;18.20;16.10;;;;;;;24.02;56.84;99914.64;105702;1258;62768;-74
2023/06/24 01:41:42;;;;;;;17.60;15.50;;;;;;;23.97;56.90;99913.33;105833;1253;60498;-75
2023/06/24 01:44:10;;;;;;;17.20;15.50;;;;;;;23.97;56.92;99915.52;105762;1251;60492;-75
2023/06/24 01:46:37;;;;;;;18.40;16.00;;;;;;;23.98;57.03;99915.64;105896;1252;64048;-75
2023/06/24 01:49:06;;;;;;;18.00;16.20;;;;;;;23.94;57.10;99914.06;105582;1253;60514;-74
2023/06/24 01:51:33;;;;;;;18.20;16.30;;;;;;;23.90;57.20;99911.67;105511;1253;62779;-74
2023/06/24 01:54:07;;;;;;;18.80;16.30;;;;;;;23.88;57.25;99911.33;105772;1259;60747;-75
2023/06/24 01:56:34;;;;;;;17.20;15.40;;;;;;;23.86;57.27;99910.96;105840;1253;60451;-73
2023/06/24 01:59:03;;;;;;;17.90;16.10;;;;;;;23.86;57.29;99916.73;105585;1259;65082;-74
2023/06/24 02:01:32;;;;;;;18.20;16.50;;;;;;;23.87;57.25;99910.91;105842;1253;60517;-75
2023/06/24 02:04:00;;;;;;;17.90;16.20;;;;;;;23.91;57.10;99915.15;105891;1253;64099;-76
2023/06/24 02:06:26;;;;;;;17.90;16.10;;;;;;;23.86;57.18;99915.87;105747;1258;60426;-75
2023/06/24 02:08:53;;;;;;;19.70;16.20;;;;;;;23.84;57.39;99916.21;105724;1253;60485;-75
2023/06/24 02:11:21;;;;;;;18.30;16.50;;;;;;;23.83;57.45;99916.16;106000;1253;65107;-75
2023/06/24 02:13:48;;;;;;;18.60;16.80;;;;;;;23.81;57.56;99918.92;105881;1253;60421;-75
2023/06/24 02:16:15;;;;;;;19.60;16.50;;;;;;;23.79;57.51;99924.24;105826;1254;63843;-74
2023/06/24 02:18:43;;;;;;;18.00;16.10;;;;;;;23.73;57.70;99928.52;105785;1252;60849;-74
2023/06/24 02:21:09;;;;;;;19.00;17.00;;;;;;;23.69;57.86;99931.09;105864;1259;60445;-75
2023/06/24 02:23:37;;;;;;;19.40;17.50;;;;;;;23.66;58.08;99934.27;105723;1259;64973;-74
2023/06/24 02:26:05;;;;;;;18.90;17.00;;;;;;;23.65;58.14;99937.10;106032;1253;60550;-75
2023/06/24 02:28:33;;;;;;;19.50;17.50;;;;;;;23.66;58.03;99939.36;105763;1254;63866;-75
2023/06/24 02:31:00;;;;;;;20.60;18.50;;;;;;;23.64;58.12;99940.83;106025;1254;61138;-75
2023/06/24 02:33:26;;;;;;;18.90;17.00;;;;;;;23.59;58.36;99945.73;105784;1253;60555;-75
2023/06/24 02:35:53;;;;;;;19.90;17.90;;;;;;;23.56;58.38;99946.91;105920;1256;64910;-75
2023/06/24 02:38:20;;;;;;;19.70;17.60;;;;;;;23.53;58.46;99947.48;105749;1258;60390;-75
2023/06/24 02:40:47;;;;;;;19.80;17.80;;;;;;;23.51;58.58;99946.92;105856;1254;62928;-75
2023/06/24 02:43:14;;;;;;;20.60;18.50;;;;;;;23.51;58.62;99945.89;105696;1256;60543;-75
2023/06/24 02:45:41;;;;;;;21.00;18.10;;;;;;;23.51;58.68;99943.15;105860;1256;60520;-75
2023/06/24 02:48:08;;;;;;;20.80;18.70;;;;;;;23.54;58.56;99941.15;105854;1255;64033;-75
2023/06/24 02:50:35;;;;;;;21.80;19.10;;;;;;;23.49;58.75;99938.61;105911;1252;60440;-75
2023/06/24 02:53:02;;;;;;;20.80;18.70;;;;;;;23.49;58.72;99935.05;105483;1253;64134;-74
2023/06/24 02:55:32;;;;;;;21.00;18.70;;;;;;;23.48;58.85;99931.73;105396;1253;60429;-75
2023/06/24 02:58:02;;;;;;;23.10;18.20;;;;;;;23.50;58.86;99931.25;105808;1259;60369;-74
2023/06/24 03:00:50;;;;;;;20.50;18.60;;;;;;;23.46;58.97;99935.94;105676;1258;65115;-74
2023/06/24 03:03:26;;;;;;;21.20;19.00;;;;;;;23.42;59.11;99943.11;105782;1257;60604;-75
2023/06/24 03:05:56;;;;;;;19.30;17.30;;;;;;;23.37;59.31;99942.08;105656;1259;64002;-75
2023/06/24 03:08:24;;;;;;;20.00;18.00;;;;;;;23.36;59.43;99943.65;105813;1253;60473;-75
2023/06/24 03:10:56;;;;;;;23.60;18.80;;;;;;;23.41;59.29;99947.23;105949;1253;60537;-75
2023/06/24 03:13:24;;;;;;;20.30;18.40;;;;;;;23.37;59.33;99945.98;105881;1256;65245;-75
2023/06/24 03:15:56;;;;;;;21.60;19.40;;;;;;;23.37;59.48;99944.30;105705;1254;60522;-75
2023/06/24 03:18:24;;;;;;;21.00;19.00;;;;;;;23.46;59.41;99945.27;105896;1256;64092;-74
2023/06/24 03:20:52;;;;;;;21.00;19.00;;;;;;;23.46;59.47;99946.63;105744;1259;60419;-74
2023/06/24 03:23:20;;;;;;;22.60;20.20;;;;;;;23.46;59.61;99950.86;105774;1253;60568;-74
2023/06/24 03:25:48;;;;;;;21.30;19.30;;;;;;;23.48;59.56;99951.64;105894;1254;65338;-75
2023/06/24 03:28:15;;;;;;;22.10;19.70;;;;;;;23.58;59.58;99949.44;106110;1256;60940;-73
2023/06/24 03:30:46;;;;;;;20.90;18.70;;;;;;;23.59;59.68;99948.65;106029;1253;63927;-75
2023/06/24 03:33:16;;;;;;;22.70;19.60;;;;;;;23.65;59.70;99943.23;105992;1253;60431;-74
2023/06/24 03:35:43;;;;;;;21.70;19.40;;;;;;;23.72;59.62;99942.17;105783;1258;60486;-74
2023/06/24 03:38:12;;;;;;;21.80;18.50;;;;;;;23.83;59.51;99941.52;105949;1253;64038;-74
2023/06/24 03:40:39;;;;;;;21.30;18.80;;;;;;;23.88;59.56;99933.02;105865;1253;60585;-74
2023/06/24 03:43:05;;;;;;;21.20;18.60;;;;;;;23.97;59.41;99929.21;105882;1253;64052;-76
2023/06/24 03:45:33;;;;;;;23.30;17.70;;;;;;;24.09;59.31;99934.34;105836;1253;60446;-73
2023/06/24 03:48:00;;;;;;;21.10;18.90;;;;;;;24.17;59.31;99934.81;105915;1251;60412;-75
2023/06/24 03:50:29;;;;;;;20.60;18.50;;;;;;;24.28;59.19;99934.68;105839;1253;65206;-74
2023/06/24 03:52:57;;;;;;;19.90;17.80;;;;;;;24.42;58.88;99930.79;105945;1257;60485;-75
2023/06/24 03:55:24;;;;;;;20.40;18.30;;;;;;;24.53;58.82;99930.42;106129;1253;63740;-76
2023/06/24 03:57:51;;;;;;;20.60;18.30;;;;;;;24.62;58.71;99928.30;105828;1253;60477;-74
2023/06/24 04:00:20;;;;;;;19.10;17.10;;;;;;;24.73;58.52;99930.80;105668;1253;60413;-75
2023/06/24 04:02:48;;;;;;;19.80;17.60;;;;;;;24.85;58.27;99927.14;105756;1258;65067;-74
2023/06/24 04:05:15;;;;;;;18.60;16.70;;;;;;;24.98;58.02;99924.23;105846;1254;60480;-75
2023/06/24 04:07:50;;;;;;;18.60;16.70;;;;;;;25.03;57.80;99925.61;105908;1253;63743;-75
2023/06/24 04:10:17;;;;;;;20.80;17.90;;;;;;;25.08;57.65;99934.66;105820;1259;60485;-75
2023/06/24 04:12:45;;;;;;;22.30;18.70;;;;;;;25.15;57.56;99943.51;105973;1253;60419;-74
2023/06/24 04:15:13;;;;;;;21.90;19.70;;;;;;;25.25;57.53;99946.48;106060;1254;65289;-75
2023/06/24 04:17:40;;;;;;;22.20;20.00;;;;;;;25.31;57.63;99947.14;105504;1261;60484;-75
2023/06/24 04:20:10;;;;;;;23.10;20.70;;;;;;;25.35;57.86;99948.27;105789;1256;63716;-74
2023/06/24 04:22:37;;;;;;;21.30;19.20;;;;;;;25.45;57.94;99951.59;105651;1253;60506;-74
2023/06/24 04:25:05;;;;;;;20.70;18.50;;;;;;;25.52;58.14;99953.70;105725;1257;60344;-75
2023/06/24 04:27:33;;;;;;;24.20;18.20;;;;;;;25.61;58.08;99951.20;106066;1253;63942;-75
2023/06/24 04:30:00;;;;;;;20.20;18.20;;;;;;;25.74;57.91;99951.61;105725;1253;60429;-75
2023/06/24 04:32:29;;;;;;;20.50;18.30;;;;;;;25.82;57.86;99951.92;105890;1255;63990;-76
2023/06/24 04:34:59;;;;;;;19.70;17.50;;;;;;;25.91;57.70;99947.65;105862;1254;60609;-76
2023/06/24 04:37:25;;;;;;;21.60;17.70;;;;;;;26.05;57.36;99943.09;105708;1252;60539;-75
2023/06/24 04:39:52;;;;;;;19.60;17.70;;;;;;;26.12;57.10;99938.23;105620;1254;63763;-75
2023/06/24 04:42:19;;;;;;;19.00;17.10;;;;;;;26.17;56.82;99933.70;105801;1254;60324;-75
2023/06/24 04:44:45;;;;;;;18.90;17.10;;;;;;;26.26;56.66;99932.92;105966;1257;64042;-75
2023/06/24 04:47:13;;;;;;;19.80;17.30;;;;;;;26.30;56.70;99934.30;105714;1254;60328;-73
2023/06/24 04:49:40;;;;;;;19.40;17.40;;;;;;;26.37;56.58;99936.16;105889;1259;60374;-74
2023/06/24 04:52:07;;;;;;;20.20;18.20;;;;;;;26.44;56.29;99935.16;106023;1254;60330;-74
2023/06/24 04:54:33;;;;;;;20.50;18.30;;;;;;;26.54;56.16;99936.70;105943;1253;60594;-74
2023/06/24 04:57:00;;;;;;;19.30;17.30;;;;;;;26.61;56.14;99943.23;105960;1253;60534;-74
2023/06/24 04:59:27;;;;;;;19.30;17.40;;;;;;;26.70;56.01;99938.98;105810;1257;60566;-74
2023/06/24 05:01:53;;;;;;;19.60;17.50;;;;;;;26.77;55.94;99936.20;105692;1253;60430;-75
2023/06/24 05:04:20;;;;;;;19.10;17.10;;;;;;;26.85;55.95;99936.55;105855;1257;60447;-75
2023/06/24 05:06:47;;;;;;;19.20;17.20;;;;;;;26.96;55.96;99933.13;105850;1256;62043;-75
2023/06/24 05:09:14;;;;;;;19.10;17.30;;;;;;;27.02;55.73;99933.56;105649;1256;64067;-75
2023/06/24 05:11:41;;;;;;;18.80;16.80;;;;;;;27.10;55.46;99934.98;105618;1257;60432;-75
2023/06/24 05:14:09;;;;;;;19.20;17.30;;;;;;;27.20;55.33;99939.19;105859;1252;60422;-74
2023/06/24 05:16:36;;;;;;;18.70;16.80;;;;;;;27.34;55.44;99942.66;105798;1258;64902;-74
2023/06/24 05:19:03;;;;;;;19.30;17.30;;;;;;;27.46;55.44;99942.60;105891;1256;60343;-73
2023/06/24 05:21:29;;;;;;;18.10;16.40;;;;;;;27.58;55.17;99939.79;105928;1252;60514;-74
2023/06/24 05:23:56;;;;;;;18.70;16.80;;;;;;;27.71;54.96;99936.25;106016;1253;60354;-74
2023/06/24 05:26:23;;;;;;;19.10;16.90;;;;;;;27.78;54.58;99933.77;105888;1259;60893;-74
2023/06/24 05:28:50;;;;;;;18.30;16.50;;;;;;;27.84;54.28;99928.98;105855;1254;65196;-75
2023/06/24 05:31:18;;;;;;;17.40;15.50;;;;;;;27.91;53.91;99924.98;105770;1258;60514;-75
2023/06/24 05:33:45;;;;;;;17.40;15.50;;;;;;;27.93;53.71;99922.64;105849;1257;62625;-75
2023/06/24 05:36:12;;;;;;;17.60;15.80;;;;;;;27.96;53.52;99921.41;105924;1256;60432;-75
2023/06/24 05:38:38;;;;;;;18.30;16.50;;;;;;;28.01;53.23;99922.54;105766;1257;60476;-75
2023/06/24 05:41:05;;;;;;;19.60;17.50;;;;;;;28.02;53.14;99922.06;105709;1259;65278;-74
2023/06/24 05:43:32;;;;;;;18.40;16.50;;;;;;;28.05;53.16;99917.60;105894;1257;60590;-75
2023/06/24 05:45:59;;;;;;;17.10;15.40;;;;;;;28.11;53.24;99919.70;106045;1260;63870;-76
2023/06/24 05:48:25;;;;;;;17.00;15.30;;;;;;;28.16;53.03;99924.23;105919;1256;60465;-75
2023/06/24 05:50:52;;;;;;;17.10;15.40;;;;;;;28.23;52.58;99922.84;106104;1257;60435;-75
2023/06/24 05:53:19;;;;;;;17.30;15.50;;;;;;;28.23;52.38;99928.15;105987;1255;63924;-75
2023/06/24 05:55:45;;;;;;;18.60;15.90;;;;;;;28.27;52.39;99937.61;105763;1252;60428;-75
2023/06/24 05:58:12;;;;;;;16.70;15.10;;;;;;;28.32;52.25;99941.19;105819;1256;64781;-75
2023/06/24 06:00:39;;;;;;;16.70;14.90;;;;;;;28.30;52.05;99941.61;105833;1258;60451;-75
2023/06/24 06:03:05;;;;;;;18.20;16.10;;;;;;;28.28;52.31;99940.71;105733;1256;60440;-75
2023/06/24 06:05:32;;;;;;;18.30;16.50;;;;;;;28.29;52.52;99937.93;105819;1255;64938;-74
2023/06/24 06:08:00;;;;;;;20.40;18.40;;;;;;;28.25;52.89;99947.15;105786;1257;60445;-76
2023/06/24 06:10:27;;;;;;;19.90;18.00;;;;;;;28.20;53.33;99954.61;105971;1258;63704;-73
2023/06/24 06:12:53;;;;;;;19.90;17.70;;;;;;;28.17;53.48;99954.99;106083;1256;60438;-73
2023/06/24 06:15:20;;;;;;;20.60;18.40;;;;;;;28.15;53.74;99954.46;105926;1257;60364;-72
2023/06/24 06:17:47;;;;;;;20.10;18.10;;;;;;;28.20;53.88;99952.80;105964;1253;65888;-73
2023/06/24 06:20:17;;;;;;;18.90;17.00;;;;;;;28.22;53.97;99955.35;106103;1258;60427;-74
2023/06/24 06:22:44;;;;;;;19.40;17.40;;;;;;;28.26;53.97;99949.48;106009;1258;64076;-73
2023/06/24 06:25:10;;;;;;;18.70;16.90;;;;;;;28.39;54.04;99945.54;106097;1257;60452;-73
2023/06/24 06:27:37;;;;;;;19.20;16.70;;;;;;;28.48;53.72;99945.13;106035;1254;60534;-79
2023/06/24 06:30:04;;;;;;;18.80;17.10;;;;;;;28.62;53.27;99942.92;105869;1255;60371;-75
2023/06/24 06:32:31;;;;;;;21.50;16.70;;;;;;;28.73;53.02;99946.34;106033;1257;60456;-73
2023/06/24 06:34:59;;;;;;;18.00;16.20;;;;;;;28.85;52.52;99942.38;106176;1255;63955;-69
2023/06/24 06:37:25;;;;;;;18.30;16.60;;;;;;;28.95;52.21;99944.92;106123;1257;60425;-74
2023/06/24 06:39:52;;;;;;;19.90;15.60;;;;;;;29.06;51.87;99941.73;105533;1254;60543;-71
2023/06/24 06:42:19;;;;;;;16.20;14.60;;;;;;;29.22;51.29;99940.55;105896;1254;65406;-69
2023/06/24 06:44:46;;;;;;;16.50;14.80;;;;;;;29.30;50.71;99939.45;105852;1254;60412;-70
2023/06/24 06:47:12;;;;;;;16.10;14.40;;;;;;;29.39;50.24;99938.23;105890;1255;60433;-73
2023/06/24 06:49:40;;;;;;;15.90;14.10;;;;;;;29.51;49.64;99936.38;105933;1258;60518;-71
2023/06/24 06:52:06;;;;;;;18.00;14.30;;;;;;;29.61;49.35;99932.77;106127;1254;60417;-70
2023/06/24 06:54:33;;;;;;;14.50;13.10;;;;;;;29.69;48.90;99934.98;105937;1256;65228;-72
2023/06/24 06:57:01;;;;;;;15.70;14.20;;;;;;;29.77;48.76;99929.28;105859;1257;60508;-70
2023/06/24 06:59:28;;;;;;;14.70;13.20;;;;;;;29.91;48.76;99923.73;106014;1257;62824;-73
2023/06/24 07:01:55;;;;;;;14.60;13.10;;;;;;;30.05;48.66;99920.07;105954;1254;60537;-72
2023/06/24 07:04:21;;;;;;;10.00;9.00;;;;;;;30.19;46.69;99918.43;105876;1253;60464;-71
2023/06/24 07:06:48;;;;;;;9.90;8.30;;;;;;;30.32;45.20;99910.89;106009;1257;64971;-69
2023/06/24 07:09:15;;;;;;;9.10;8.20;;;;;;;30.41;44.67;99911.38;106017;1255;60537;-71
2023/06/24 07:11:42;;;;;;;9.10;7.90;;;;;;;30.57;44.16;99913.11;105855;1254;64121;-71
2023/06/24 07:14:09;;;;;;;10.10;7.80;;;;;;;30.71;43.49;99910.14;106112;1254;60425;-74
2023/06/24 07:16:36;;;;;;;8.20;7.30;;;;;;;30.82;43.09;99907.20;105759;1254;60562;-71
2023/06/24 07:19:02;;;;;;;8.40;7.50;;;;;;;30.91;42.98;99911.05;105877;1254;65423;-73
2023/06/24 07:21:29;;;;;;;8.40;7.60;;;;;;;30.99;42.53;99915.29;105958;1257;60655;-73
2023/06/24 07:23:56;;;;;;;8.20;7.40;;;;;;;31.04;42.28;99921.30;106151;1261;64113;-73
2023/06/24 07:26:23;;;;;;;7.50;6.70;;;;;;;31.11;41.84;99921.92;105811;1260;60393;-74
2023/06/24 07:28:49;;;;;;;8.70;7.00;;;;;;;31.19;41.16;99920.81;105932;1257;60399;-72
2023/06/24 07:31:31;;;;;;;7.60;6.70;;;;;;;31.31;40.48;99924.03;106186;1254;64778;-76
2023/06/24 07:33:58;;;;;;;11.20;6.90;;;;;;;31.44;40.05;99928.15;105795;1260;60545;-73
2023/06/24 07:36:24;;;;;;;8.40;6.20;;;;;;;31.54;40.11;99930.41;106019;1257;64118;-74
2023/06/24 07:38:51;;;;;;;7.70;6.90;;;;;;;31.59;40.23;99934.67;106209;1258;60439;-72
2023/06/24 07:41:20;;;;;;;6.50;5.90;;;;;;;31.64;39.39;99936.92;106193;1253;60924;-73
2023/06/24 07:43:46;;;;;;;7.10;5.10;;;;;;;31.77;38.94;99935.32;106103;1254;64963;-73
2023/06/24 07:46:13;;;;;;;7.20;4.90;;;;;;;31.91;38.04;99938.01;106073;1257;60552;-73
2023/06/24 07:48:40;;;;;;;5.60;4.90;;;;;;;32.06;36.76;99939.42;106000;1257;64089;-75
2023/06/24 07:51:08;;;;;;;6.40;5.00;;;;;;;32.20;36.75;99940.67;105891;1258;60348;-70
2023/06/24 07:53:37;;;;;;;9.10;5.90;;;;;;;32.32;36.62;99946.52;105836;1254;60444;-71
2023/06/24 07:56:04;;;;;;;9.80;5.60;;;;;;;32.30;36.62;99942.64;105765;1257;65041;-73
2023/06/24 07:58:30;;;;;;;6.90;5.20;;;;;;;32.22;36.83;99942.90;106059;1254;60530;-75
2023/06/24 08:00:57;;;;;;;7.80;5.30;;;;;;;32.21;36.91;99946.28;106005;1254;63933;-79
2023/06/24 08:03:23;;;;;;;11.60;4.80;;;;;;;32.18;36.89;99945.21;105842;1257;60498;-78
2023/06/24 08:05:50;;;;;;;6.70;5.00;;;;;;;32.24;36.92;99941.27;105879;1257;60642;-75
2023/06/24 08:08:19;;;;;;;8.00;6.80;;;;;;;32.34;37.31;99942.42;105972;1256;65160;-77
2023/06/24 08:10:46;;;;;;;9.00;5.90;;;;;;;32.48;38.61;99940.59;105925;1254;60448;-76
2023/06/24 08:13:13;;;;;;;11.10;9.10;;;;;;;32.55;39.17;99935.48;105805;1258;63841;-76
2023/06/24 08:15:40;;;;;;;12.30;11.10;;;;;;;32.64;41.13;99936.46;105840;1257;173376;-76
2023/06/24 08:18:08;;;;;;;12.20;10.80;;;;;;;32.71;42.26;99935.33;105968;1257;60429;-76
2023/06/24 08:20:35;;;;;;;11.50;10.40;;;;;;;32.74;42.23;99935.55;105897;1258;65227;-76
2023/06/24 08:23:02;;;;;;;11.70;10.40;;;;;;;32.74;42.11;99936.15;105850;1256;60538;-76
2023/06/24 08:25:30;;;;;;;12.30;11.10;;;;;;;32.79;42.55;99937.77;105914;1255;64052;-76
2023/06/24 08:27:57;;;;;;;12.60;11.40;;;;;;;32.84;43.16;99934.71;105914;1257;60527;-76
2023/06/24 08:30:23;;;;;;;13.40;11.20;;;;;;;32.97;43.29;99934.00;105989;1258;60367;-77
2023/06/24 08:32:51;;;;;;;14.00;10.60;;;;;;;33.09;43.06;99930.56;105696;1257;65083;-77
2023/06/24 08:35:18;;;;;;;11.60;10.50;;;;;;;33.21;42.83;99928.86;105744;1254;60531;-77
2023/06/24 08:37:44;;;;;;;11.40;9.90;;;;;;;33.32;42.41;99932.79;105764;1257;60466;-78
2023/06/24 08:40:11;;;;;;;10.50;8.80;;;;;;;33.43;41.78;99931.88;105965;1257;60391;-77
2023/06/24 08:42:39;;;;;;;11.60;8.90;;;;;;;33.52;40.95;99931.16;105853;1254;60499;-77
2023/06/24 08:45:06;;;;;;;9.90;8.90;;;;;;;33.67;41.09;99931.21;105694;1254;65267;-77
2023/06/24 08:47:33;;;;;;;11.00;10.00;;;;;;;33.79;41.22;99933.27;105774;1255;60477;-77
2023/06/24 08:50:15;;;;;;;9.60;8.70;;;;;;;33.94;40.73;99928.34;105912;1257;64015;-77
2023/06/24 08:52:46;;;;;;;10.70;8.40;;;;;;;34.09;40.48;99925.59;105769;1256;60444;-77
2023/06/24 08:55:13;;;;;;;10.60;8.00;;;;;;;34.21;39.53;99922.84;105895;1257;60393;-77
2023/06/24 08:57:41;;;;;;;10.40;7.20;;;;;;;34.32;38.79;99917.41;105823;1256;65030;-78
2023/06/24 09:00:11;;;;;;;8.20;7.20;;;;;;;34.44;38.33;99914.29;106040;1254;60534;-77
2023/06/24 09:02:38;;;;;;;8.40;7.60;;;;;;;34.57;37.82;99908.66;105946;1254;64033;-77
2023/06/24 09:05:06;;;;;;;9.70;7.30;;;;;;;34.74;37.42;99910.77;105863;1254;61966;-77
2023/06/24 09:07:32;;;;;;;12.40;8.80;;;;;;;34.85;37.21;99909.21;105773;1254;60448;-77
2023/06/24 09:10:03;;;;;;;12.10;8.50;;;;;;;34.92;37.45;99909.09;105784;1256;65079;-74
2023/06/24 09:12:31;;;;;;;11.90;8.20;;;;;;;35.01;37.25;99916.16;105777;1256;60482;-77
2023/06/24 09:14:58;;;;;;;12.30;7.70;;;;;;;35.10;37.03;99914.61;105795;1254;63816;-77
2023/06/24 09:17:25;;;;;;;10.50;8.40;;;;;;;35.22;37.28;99918.29;105796;1254;60338;-77
2023/06/24 09:19:56;;;;;;;14.20;9.00;;;;;;;35.36;37.03;99915.69;105944;1252;60447;-77
2023/06/24 09:22:22;;;;;;;9.00;8.10;;;;;;;35.44;36.67;99917.46;105721;1252;65230;-76
2023/06/24 09:24:49;;;;;;;9.90;8.90;;;;;;;35.39;37.09;99916.69;105806;1257;60332;-77
2023/06/24 09:27:19;;;;;;;9.60;8.60;;;;;;;35.40;37.52;99914.27;105794;1254;64068;-76
2023/06/24 09:29:47;;;;;;;9.80;8.80;;;;;;;35.45;37.39;99916.34;105699;1254;60358;-77
2023/06/24 09:32:14;;;;;;;10.70;8.60;;;;;;;35.51;37.39;99924.16;105952;1254;60515;-77
2023/06/24 09:34:41;;;;;;;12.00;8.80;;;;;;;35.62;37.86;99927.45;105792;1254;65156;-78
2023/06/24 09:37:07;;;;;;;11.10;9.70;;;;;;;35.78;37.88;99922.69;105909;1256;60473;-77
2023/06/24 09:39:38;;;;;;;10.40;9.40;;;;;;;35.92;37.70;99919.47;105865;1254;63805;-77
2023/06/24 09:42:06;;;;;;;9.20;8.00;;;;;;;36.01;36.71;99914.14;105749;1258;60461;-77
2023/06/24 09:44:33;;;;;;;9.20;8.20;;;;;;;36.00;36.13;99919.41;105944;1254;60474;-77
2023/06/24 09:47:00;;;;;;;9.20;8.30;;;;;;;35.92;35.94;99923.64;105851;1257;65020;-77
2023/06/24 09:49:28;;;;;;;11.40;8.30;;;;;;;35.83;35.85;99919.64;105668;1254;60433;-77
2023/06/24 09:51:59;;;;;;;9.40;7.90;;;;;;;35.75;36.44;99919.31;105874;1254;63858;-77
2023/06/24 09:54:30;;;;;;;13.50;8.30;;;;;;;35.80;36.10;99924.08;105695;1257;60521;-77
2023/06/24 09:57:02;;;;;;;9.50;7.90;;;;;;;35.86;35.83;99919.98;105843;1253;60438;-77
2023/06/24 09:59:29;;;;;;;7.60;6.80;;;;;;;35.83;36.28;99915.02;105615;1254;65247;-77
2023/06/24 10:01:56;;;;;;;7.40;6.30;;;;;;;35.97;35.20;99919.44;105747;1254;60546;-77
2023/06/24 10:04:22;;;;;;;6.70;4.70;;;;;;;36.10;34.56;99915.23;105619;1257;63915;-77
2023/06/24 10:06:50;;;;;;;7.30;5.60;;;;;;;36.15;33.42;99919.11;105760;1254;60419;-78
2023/06/24 10:09:19;;;;;;;9.80;5.70;;;;;;;36.21;33.23;99912.73;105808;1253;60455;-77
2023/06/24 10:11:47;;;;;;;8.60;7.80;;;;;;;36.27;33.66;99909.92;105617;1254;65215;-77
2023/06/24 10:14:14;;;;;;;9.90;8.30;;;;;;;36.27;35.03;99913.98;105763;1254;60469;-77
2023/06/24 10:16:42;;;;;;;8.30;7.50;;;;;;;36.23;35.65;99915.45;105769;1257;63819;-76
2023/06/24 10:19:09;;;;;;;8.90;7.10;;;;;;;36.17;35.66;99915.33;105837;1257;60434;-77
2023/06/24 10:21:47;;;;;;;8.50;7.60;;;;;;;36.14;35.65;99916.81;105712;1254;60470;-77
2023/06/24 10:24:28;;;;;;;10.70;7.20;;;;;;;36.14;35.51;99919.17;105846;1254;63958;-77
2023/06/24 10:26:55;;;;;;;10.60;7.50;;;;;;;36.20;35.12;99916.92;105694;1254;60473;-77
2023/06/24 10:29:35;;;;;;;10.10;7.70;;;;;;;36.08;35.22;99917.31;105691;1254;63820;-77
2023/06/24 10:32:07;;;;;;;9.90;6.80;;;;;;;35.87;35.99;99918.47;105949;1256;60497;-77
2023/06/24 10:34:34;;;;;;;10.10;6.40;;;;;;;35.71;36.36;99912.23;105786;1257;60388;-77
2023/06/24 10:37:07;;;;;;;9.50;6.20;;;;;;;35.66;36.29;99909.15;105706;1252;65069;-77
2023/06/24 10:39:39;;;;;;;7.50;5.10;;;;;;;35.69;36.43;99910.69;105719;1257;60575;-77
2023/06/24 10:42:24;;;;;;;;;;;;;;;35.75;35.90;99909.00;105923;1254;64087;-77
2023/06/24 10:44:52;;;;;;;9.00;4.80;;;;;;;35.74;35.50;99908.63;105939;1254;60417;-77
2023/06/24 10:47:19;;;;;;;7.70;4.90;;;;;;;35.67;35.46;99902.02;105936;1253;60603;-77
2023/06/24 10:49:46;;;;;;;7.50;4.80;;;;;;;35.62;35.16;99904.21;105793;1252;65192;-77
2023/06/24 10:52:12;;;;;;;7.00;4.50;;;;;;;35.50;35.43;99903.85;105904;1256;60590;-77
2023/06/24 10:54:40;;;;;;;8.90;4.60;;;;;;;35.35;35.48;99899.01;105796;1253;64134;-77
2023/06/24 10:57:07;;;;;;;8.00;4.80;;;;;;;35.22;35.52;99901.86;105911;1255;60438;-77
2023/06/24 10:59:35;;;;;;;10.40;4.80;;;;;;;34.99;35.45;99901.86;105971;1253;60562;-77
2023/06/24 11:02:01;;;;;;;6.50;4.50;;;;;;;34.78;36.07;99898.11;106080;1257;65196;-76
2023/06/24 11:04:28;;;;;;;6.80;4.70;;;;;;;34.65;36.56;99896.48;106011;1257;60444;-77
2023/06/24 11:07:02;;;;;;;9.30;4.70;;;;;;;34.60;37.01;99896.23;106003;1253;64001;-77
2023/06/24 11:09:28;;;;;;;7.10;4.60;;;;;;;34.66;37.06;99895.13;106047;1257;60406;-78
2023/06/24 11:11:55;;;;;;;7.50;4.50;;;;;;;34.73;37.16;99889.38;106040;1253;60550;-77
2023/06/24 11:14:22;;;;;;;7.50;4.50;;;;;;;34.81;37.36;99886.44;106092;1263;65290;-76
2023/06/24 11:16:49;;;;;;;10.10;4.20;;;;;;;35.03;37.16;99879.80;106071;1256;60533;-78
2023/06/24 11:19:16;;;;;;;9.70;4.50;;;;;;;35.30;36.81;99876.49;106277;1253;64164;-76
2023/06/24 11:21:43;;;;;;;7.80;4.20;;;;;;;35.55;36.47;99875.48;106269;1253;60403;-78